Monterey, VA

8:15 PM EDT on July 12, 2014 (GMT -0400)
Elkins-Randolph County (KEKN) Elev 1978 ft | 38.89 °N, 79.85 °W | Change Station

Current weather conditions updated 24 minutes ago

Clear
Clear
77 °F
Feels Like 77 °F
N
0
Wind Variable Wind from North

Tomorrow is forecast to be Cooler than today.

Today
High -- | Low -- °F
--% Chance of Precip.
Yesterday
High -- | Low -- °F
Precip. -- in
6:04 AM 8:43 PM
Full, 100% visible
Pressure 30.15 in
Visibility 10.0 miles
Clouds Clear
Dew Point 64 °F
Humidity 64%
Rainfall 0.00 in
Snow Depth Not available.
UV 0 out of 12
Pollen 3.70 out of 12
Air Quality Not available.
Flu Activity Sporadic
METAR KEKN 122351Z AUTO 00000KT 10SM CLR 25/18 A3017 RMK AO2 SLP210 T02500178 10294 20244 58012 TSNO

More Conditions Fewer Conditions

Pressure 30.15 in
Visibility 10.0 miles
Clouds Clear
Dew Point 64 °F
Humidity 64%
Rainfall 0.00 in
Snow Depth Not available.
UV 0 out of 12
Pollen 3.70 out of 12
Air Quality Not available.
Flu Activity Sporadic
METAR KEKN 122351Z AUTO 00000KT 10SM CLR 25/18 A3017 RMK AO2 SLP210 T02500178 10294 20244 58012 TSNO

More Conditions Fewer Conditions

10-Day Weather Forecast

Almanac

Astronomy

Jul. 12, 2014 Rise Set
Actual Time 6:04 AM EDT 8:43 PM EDT
Civil Twilight 5:33 AM EDT 9:14 PM EDT
Nautical Twilight 4:55 AM EDT 9:52 PM EDT
Astronomical Twilight 4:11 AM EDT 10:35 PM EDT
Moon 8:45 PM EDT (7/12) 6:21 AM EDT (7/12)
Length of Visible Light 15h 40m
Length of Day
14h 38m
Tomorrow will be 1m 8s shorter.
Full, 100% of the Moon is Illuminated
Today
Full
Jul 18
Last Quarter
Jul 26
New
Aug 3
First Quarter
Aug 10
Full

Today's Extremes

State Highs State Lows

Community

WunderPhotos

Upload Photos

1,733,008 photos uploaded!

WunderBlogs® & News

Nearby

Snow Depth

Station Depth Elevation
No new snow has been reported.

Earthquake Activity

City Distance Mag. Time & Date
No recent earthquake activity has been reported nearby.
Minimum magnitude displayed is 2.5.

Coastal Water Temperatures

Place Temperature
No Stations Reporting

Nearby Weather Stations

Station Location Temp. Heat Index Dew Point Humidity Wind Precip. Elev Updated Type
Monterey, VA 72.5 °F 73 °F 65 °F 78% SW  at  5.0 mph 0.00 in / hr 2924 ft 8:15 PM EDT Normal
Arbovale, WV 79.2 °F 84 °F 79 °F 98% South  at  0.0 mph - / hr 2723 ft 8:03 PM EDT Normal
Green Bank Observatory, near 140ft teles, Green Bank, WV 77.0 °F 79 °F 66 °F 68% ESE  at  6.0 mph 0.00 in / hr 2688 ft 8:15 PM EDT Normal
Snowshoe, Snowshoe, WV 68.7 °F - 60 °F 74% WSW  at  1.0 mph - / hr 3261 ft 8:11 PM EDT Normal

Show More Stations Show Fewer Stations